Aviation Digital Data Service (ADDS)

Output produced by METARs form (0330 UTC 28 June 2017)
found at http://www.aviationweather.gov/adds/metars/
 
METAR text: KGYI 280315Z AUTO 12008KT 10SM CLR 26/21 A2997 RMK AO2 T02570208
Conditions at: KGYI (SHERMAN/DENISON , TX, US) observed 0315 UTC 28 June 2017
Temperature: 25.7°C (78°F)
Dewpoint: 20.8°C (69°F) [RH = 74%]
Pressure (altimeter): 29.97 inches Hg (1015.0 mb)
Winds: from the ESE (120 degrees) at 9 MPH (8 knots; 4.2 m/s)
Visibility: 10 or more miles (16+ km)
Ceiling: at least 12,000 feet AGL
Clouds: sky clear below 12,000 feet AGL
Weather: automated observation with no human augmentation;
there may or may not be significant weather present at this time